Terminal Aerodrome Forecast
Issued by NWS

Home | Current Version | Previous Version | Text Only | Print | Product List | Glossary On
Versions: 1 2 3 4 5 6 7 8 9 10 11 12 13 14
000
FTUS45 KVEF 202300
TAFEED
TAF
KEED 202320Z 2100/2124 21011KT P6SM SCT100
     FM210400 21008KT P6SM SCT060 BKN100
     FM211300 VRB05KT P6SM SCT100=

USA.gov is the U.S. government's official web portal to all federal, state and local government web resources and services.